Time;durP1;ratioP1;P1;durP2;ratioP2;P2;SDS_P1;SDS_P2;PMS_P1;PMS_P2;Temp;Humidity;BMP_temperature;BMP_pressure;BME280_temperature;BME280_humidity;BME280_pressure;Samples;Min_cycle;Max_cycle;Signal;HPM_P1;HPM_P2
2023/12/25 00:01:26;;;;;;;13.02;2.83;;;11.10;99.90;;;;;;5152268;27;20034;-52
2023/12/25 00:03:52;;;;;;;12.90;2.60;;;11.10;99.90;;;;;;5153582;27;20023;-51
2023/12/25 00:06:18;;;;;;;11.15;2.22;;;11.00;99.90;;;;;;5153466;27;20113;-51
2023/12/25 00:08:44;;;;;;;10.02;2.00;;;10.90;99.90;;;;;;5152217;27;20181;-51
2023/12/25 00:11:10;;;;;;;11.02;2.50;;;10.80;99.90;;;;;;5153389;27;20057;-51
2023/12/25 00:13:36;;;;;;;14.32;2.50;;;10.80;99.90;;;;;;5152168;27;20023;-51
2023/12/25 00:16:02;;;;;;;8.70;2.08;;;10.70;99.90;;;;;;5153312;27;20090;-51
2023/12/25 00:18:27;;;;;;;12.73;1.80;;;10.70;99.90;;;;;;5153321;27;20038;-49
2023/12/25 00:20:53;;;;;;;9.38;2.05;;;10.70;99.90;;;;;;5152156;27;20115;-51
2023/12/25 00:23:18;;;;;;;10.32;1.90;;;10.60;99.90;;;;;;5153222;27;20031;-50
2023/12/25 00:25:44;;;;;;;9.80;1.73;;;10.60;99.90;;;;;;5153045;27;20023;-50
2023/12/25 00:28:10;;;;;;;7.30;1.88;;;10.60;99.90;;;;;;5152759;27;20054;-50
2023/12/25 00:30:35;;;;;;;9.30;2.20;;;10.60;99.90;;;;;;5153235;27;20026;-49
2023/12/25 00:33:01;;;;;;;14.10;2.35;;;10.60;99.90;;;;;;5153098;27;20023;-51
2023/12/25 00:35:27;;;;;;;6.00;2.58;;;10.60;99.90;;;;;;5153089;27;20300;-51
2023/12/25 00:37:52;;;;;;;15.13;3.10;;;10.60;99.90;;;;;;5153014;27;20019;-48
2023/12/25 00:40:18;;;;;;;14.00;2.60;;;10.60;99.90;;;;;;5152171;27;20027;-48
2023/12/25 00:42:44;;;;;;;15.82;2.55;;;10.70;99.90;;;;;;5153034;27;20042;-49
2023/12/25 00:45:09;;;;;;;12.30;2.55;;;10.70;99.90;;;;;;5152893;27;20051;-48
2023/12/25 00:47:35;;;;;;;15.55;2.78;;;10.80;99.90;;;;;;5153032;27;20303;-50
2023/12/25 00:50:02;;;;;;;17.60;2.28;;;10.80;99.90;;;;;;5152037;27;20084;-48
2023/12/25 00:52:27;;;;;;;10.93;3.03;;;10.90;99.90;;;;;;5149772;27;20039;-49
2023/12/25 00:54:53;;;;;;;12.55;2.58;;;10.90;99.90;;;;;;5149461;27;20075;-48
2023/12/25 00:57:19;;;;;;;10.27;2.05;;;10.80;99.90;;;;;;5149496;27;20023;-48
2023/12/25 00:59:44;;;;;;;10.65;2.40;;;10.90;99.90;;;;;;5149286;27;20027;-50
2023/12/25 01:02:10;;;;;;;12.00;2.42;;;10.90;99.90;;;;;;5149627;27;20189;-48
2023/12/25 01:04:36;;;;;;;15.88;2.80;;;10.90;99.90;;;;;;5149489;27;20055;-48
2023/12/25 01:07:01;;;;;;;9.23;2.58;;;10.90;99.90;;;;;;5149627;27;20042;-48
2023/12/25 01:09:27;;;;;;;12.98;3.25;;;10.90;99.90;;;;;;5148120;27;20046;-48
2023/12/25 01:11:53;;;;;;;17.95;2.65;;;10.90;99.90;;;;;;5148260;27;20221;-48
2023/12/25 01:14:18;;;;;;;17.40;2.47;;;10.90;99.90;;;;;;5148448;27;20075;-47
2023/12/25 01:16:44;;;;;;;18.42;3.00;;;10.90;99.90;;;;;;5149325;27;20053;-48
2023/12/25 01:19:11;;;;;;;13.35;3.33;;;10.90;99.90;;;;;;5149396;27;20030;-47
2023/12/25 01:21:37;;;;;;;16.27;3.03;;;10.80;99.90;;;;;;5148247;27;20038;-48
2023/12/25 01:24:03;;;;;;;10.85;2.30;;;10.80;99.90;;;;;;5149624;27;20023;-48
2023/12/25 01:26:30;;;;;;;16.92;2.72;;;10.80;99.90;;;;;;5147994;27;20062;-48
2023/12/25 01:28:56;;;;;;;14.18;3.00;;;10.80;99.90;;;;;;5149431;27;20165;-47
2023/12/25 01:31:22;;;;;;;13.20;2.55;;;10.80;99.90;;;;;;5148686;27;20023;-49
2023/12/25 01:33:48;;;;;;;10.50;2.08;;;10.80;99.90;;;;;;5147867;27;20038;-48
2023/12/25 01:36:14;;;;;;;13.88;2.55;;;10.70;99.90;;;;;;5148929;27;20075;-49
2023/12/25 01:38:39;;;;;;;11.20;2.65;;;10.80;99.90;;;;;;5148908;27;20051;-48
2023/12/25 01:41:05;;;;;;;15.82;3.08;;;10.80;99.90;;;;;;5148987;27;20289;-48
2023/12/25 01:43:31;;;;;;;14.30;2.75;;;10.80;99.90;;;;;;5148769;27;20027;-49
2023/12/25 01:45:56;;;;;;;19.20;3.45;;;10.80;99.90;;;;;;5147478;27;20054;-47
2023/12/25 01:48:22;;;;;;;15.77;2.90;;;10.80;99.90;;;;;;5148608;27;20034;-46
2023/12/25 01:50:48;;;;;;;19.60;2.92;;;10.90;99.90;;;;;;5130434;27;20019;-47
2023/12/25 01:53:14;;;;;;;17.05;2.53;;;10.90;99.90;;;;;;5147732;27;20058;-50
2023/12/25 01:55:39;;;;;;;16.90;3.08;;;11.00;99.90;;;;;;5130375;27;20035;-49
2023/12/25 01:58:05;;;;;;;16.33;2.70;;;11.00;99.90;;;;;;5130536;27;20087;-50
2023/12/25 02:00:31;;;;;;;12.43;2.90;;;11.00;99.90;;;;;;5148470;27;20035;-49
2023/12/25 02:02:57;;;;;;;19.65;2.80;;;11.10;99.90;;;;;;5147854;27;20050;-49
2023/12/25 02:05:22;;;;;;;13.40;2.67;;;11.00;99.90;;;;;;5148226;27;20023;-49
2023/12/25 02:07:48;;;;;;;12.90;2.58;;;11.00;99.90;;;;;;5147014;27;20095;-46
2023/12/25 02:10:27;;;;;;;17.55;2.70;;;11.00;99.90;;;;;;5147292;27;20244;-47
2023/12/25 02:12:53;;;;;;;14.38;2.42;;;11.00;99.90;;;;;;5147913;27;20030;-47
2023/12/25 02:15:19;;;;;;;16.52;2.88;;;11.00;99.90;;;;;;5147914;27;20236;-47
2023/12/25 02:17:45;;;;;;;12.73;3.83;;;11.10;99.90;;;;;;5129906;27;20293;-49
2023/12/25 02:20:10;;;;;;;18.08;2.97;;;11.10;99.90;;;;;;5147726;27;20050;-49
2023/12/25 02:22:36;;;;;;;13.68;2.78;;;11.10;99.90;;;;;;5147495;27;20058;-50
2023/12/25 02:25:04;;;;;;;10.50;2.28;;;11.10;99.90;;;;;;5146671;27;20080;-49
2023/12/25 02:27:30;;;;;;;12.07;2.25;;;11.00;99.90;;;;;;5129944;27;20042;-47
2023/12/25 02:29:55;;;;;;;10.02;2.33;;;11.00;99.90;;;;;;5129543;27;20027;-49
2023/12/25 02:32:21;;;;;;;12.27;2.60;;;11.00;99.90;;;;;;5147867;27;20038;-49
2023/12/25 02:34:47;;;;;;;16.20;3.78;;;11.00;99.90;;;;;;5147586;27;20033;-49
2023/12/25 02:37:14;;;;;;;10.25;2.20;;;11.00;99.90;;;;;;5147626;27;20277;-49
2023/12/25 02:39:40;;;;;;;13.57;2.30;;;10.90;99.90;;;;;;5147625;27;20030;-49
2023/12/25 02:42:05;;;;;;;13.35;2.03;;;10.90;99.90;;;;;;5146802;27;20023;-50
2023/12/25 02:44:31;;;;;;;10.85;2.45;;;10.90;99.90;;;;;;5146332;27;20288;-50
2023/12/25 02:46:57;;;;;;;11.50;2.15;;;10.80;99.90;;;;;;5147666;27;20015;-52
2023/12/25 02:49:22;;;;;;;14.95;2.45;;;10.80;99.90;;;;;;5147533;27;20015;-49
2023/12/25 02:51:48;;;;;;;13.52;2.30;;;10.70;99.90;;;;;;5147429;27;20031;-50
2023/12/25 02:54:14;;;;;;;8.95;2.42;;;10.70;99.90;;;;;;5146311;27;20015;-47
2023/12/25 02:56:40;;;;;;;14.52;2.20;;;10.80;99.90;;;;;;5147362;27;20030;-47
2023/12/25 02:59:05;;;;;;;16.13;2.30;;;10.80;99.90;;;;;;5147276;27;20197;-47
2023/12/25 03:01:31;;;;;;;13.30;2.50;;;10.70;99.90;;;;;;5146266;27;20086;-47
2023/12/25 03:03:57;;;;;;;15.95;2.60;;;10.80;99.90;;;;;;5146344;27;20080;-47
2023/12/25 03:06:22;;;;;;;11.90;2.38;;;10.80;99.90;;;;;;5147148;27;20034;-48
2023/12/25 03:08:48;;;;;;;11.18;2.17;;;10.80;99.90;;;;;;5146719;27;20300;-48
2023/12/25 03:11:14;;;;;;;14.63;2.58;;;10.80;99.90;;;;;;5146053;27;20189;-47
2023/12/25 03:13:39;;;;;;;14.10;2.65;;;10.80;99.90;;;;;;5145159;27;20032;-47
2023/12/25 03:16:06;;;;;;;11.35;2.58;;;10.80;99.90;;;;;;5147034;27;20019;-47
2023/12/25 03:18:32;;;;;;;11.07;2.85;;;10.80;99.90;;;;;;5146973;27;20041;-49
2023/12/25 03:20:58;;;;;;;10.90;2.25;;;10.80;99.90;;;;;;5146027;27;20091;-47
2023/12/25 03:23:23;;;;;;;13.50;2.63;;;10.80;99.90;;;;;;5146788;27;20045;-48
2023/12/25 03:25:49;;;;;;;17.33;2.38;;;10.80;99.90;;;;;;5146906;27;20098;-46
2023/12/25 03:28:14;;;;;;;16.98;2.40;;;10.80;99.90;;;;;;5147002;27;20031;-48
2023/12/25 03:30:40;;;;;;;16.50;2.65;;;10.80;99.90;;;;;;5145827;27;20036;-46
2023/12/25 03:33:07;;;;;;;15.23;2.83;;;10.80;99.90;;;;;;5146772;27;20027;-47
2023/12/25 03:35:33;;;;;;;17.65;2.47;;;10.80;99.90;;;;;;5145727;27;20098;-47
2023/12/25 03:37:59;;;;;;;16.52;2.58;;;10.80;99.90;;;;;;5146739;28;20067;-47
2023/12/25 03:40:25;;;;;;;14.40;2.42;;;10.90;99.90;;;;;;5146287;28;20035;-48
2023/12/25 03:42:51;;;;;;;12.98;2.42;;;10.90;99.90;;;;;;5146567;28;20042;-47
2023/12/25 03:45:17;;;;;;;6.45;1.38;;;10.90;99.90;;;;;;5146446;28;20023;-47
2023/12/25 03:47:42;;;;;;;12.90;2.47;;;10.90;99.90;;;;;;5146524;28;20309;-47
2023/12/25 03:50:08;;;;;;;19.85;2.50;;;10.90;99.90;;;;;;5146799;28;20027;-48
2023/12/25 03:52:34;;;;;;;15.45;2.22;;;10.90;99.90;;;;;;5146086;28;20020;-47
2023/12/25 03:54:59;;;;;;;14.52;2.22;;;10.80;99.90;;;;;;5146453;28;20192;-48
2023/12/25 03:57:25;;;;;;;21.58;2.58;;;10.90;99.90;;;;;;5146459;28;20043;-47
2023/12/25 03:59:51;;;;;;;9.65;2.20;;;10.90;99.90;;;;;;5146642;28;20087;-46
2023/12/25 04:02:16;;;;;;;12.02;2.50;;;10.90;99.90;;;;;;5145674;28;20031;-47
2023/12/25 04:04:42;;;;;;;19.23;3.15;;;10.90;99.90;;;;;;5146555;28;20325;-47
2023/12/25 04:07:08;;;;;;;12.57;2.40;;;10.90;99.90;;;;;;5146351;28;20079;-47
2023/12/25 04:09:33;;;;;;;20.00;3.47;;;10.80;99.90;;;;;;5145949;28;20062;-49
2023/12/25 04:11:59;;;;;;;19.75;3.03;;;10.80;99.90;;;;;;5146647;28;20090;-50
2023/12/25 04:14:25;;;;;;;14.65;2.95;;;10.80;99.90;;;;;;5146696;28;20015;-48
2023/12/25 04:16:50;;;;;;;22.58;2.85;;;10.80;99.90;;;;;;5146361;28;20024;-49
2023/12/25 04:19:16;;;;;;;15.15;3.17;;;10.80;99.90;;;;;;5146374;28;20027;-50
2023/12/25 04:21:42;;;;;;;17.02;2.50;;;10.80;99.90;;;;;;5146464;28;20225;-50
2023/12/25 04:24:08;;;;;;;13.38;2.25;;;10.80;99.90;;;;;;5145919;27;20037;-49
2023/12/25 04:26:34;;;;;;;17.52;2.78;;;10.80;99.90;;;;;;5148886;27;20111;-51
2023/12/25 04:28:59;;;;;;;12.70;2.50;;;10.70;99.90;;;;;;5150190;27;20285;-50
2023/12/25 04:31:25;;;;;;;16.00;2.85;;;10.80;99.90;;;;;;5150158;27;20042;-50
2023/12/25 04:33:50;;;;;;;24.98;3.10;;;10.80;99.90;;;;;;5150073;27;20226;-50
2023/12/25 04:36:16;;;;;;;15.73;2.83;;;10.80;99.90;;;;;;5150124;27;20090;-50
2023/12/25 04:38:42;;;;;;;13.10;2.75;;;10.80;99.90;;;;;;5150132;27;20054;-50
2023/12/25 04:41:08;;;;;;;16.50;2.60;;;10.80;99.90;;;;;;5149563;27;20031;-50
2023/12/25 04:43:33;;;;;;;17.33;3.75;;;10.80;99.90;;;;;;5149967;27;20023;-50
2023/12/25 04:46:02;;;;;;;15.63;2.50;;;10.90;99.90;;;;;;5149823;27;20037;-50
2023/12/25 04:48:28;;;;;;;17.08;3.00;;;10.90;99.90;;;;;;5149857;27;20094;-49
2023/12/25 04:50:54;;;;;;;18.10;2.85;;;10.90;99.90;;;;;;5149542;27;20019;-50
2023/12/25 04:53:19;;;;;;;16.65;2.97;;;10.90;99.90;;;;;;5149055;27;20051;-49
2023/12/25 04:55:45;;;;;;;14.70;2.92;;;10.90;99.90;;;;;;5149717;27;20333;-50
2023/12/25 04:58:11;;;;;;;15.20;2.83;;;10.90;99.90;;;;;;5149726;27;20023;-50
2023/12/25 05:04:11;;;;;;;16.20;2.85;;;10.90;99.90;;;;;;5149666;27;20060;-50
2023/12/25 05:06:36;;;;;;;15.25;3.30;;;10.90;99.90;;;;;;5148377;27;20043;-50
2023/12/25 05:09:03;;;;;;;13.00;2.40;;;10.90;99.90;;;;;;5149085;27;20039;-49
2023/12/25 05:11:29;;;;;;;11.90;2.67;;;11.00;99.90;;;;;;5149338;27;20043;-49
2023/12/25 05:13:54;;;;;;;15.32;3.22;;;10.90;99.90;;;;;;5148913;27;20027;-47
2023/12/25 05:16:20;;;;;;;15.45;2.33;;;11.00;99.90;;;;;;5149432;27;20031;-47
2023/12/25 05:18:46;;;;;;;13.30;3.33;;;11.00;99.90;;;;;;5148895;27;20104;-47
2023/12/25 05:21:11;;;;;;;17.77;2.88;;;11.00;99.90;;;;;;5149257;27;20046;-49
2023/12/25 05:23:37;;;;;;;11.25;2.42;;;10.90;99.90;;;;;;5149159;27;20214;-47
2023/12/25 05:26:03;;;;;;;10.05;1.88;;;10.90;99.90;;;;;;5148082;27;20278;-48
2023/12/25 05:28:28;;;;;;;10.63;2.35;;;10.90;99.90;;;;;;5148578;27;20027;-46
2023/12/25 05:30:54;;;;;;;14.43;2.70;;;10.90;99.90;;;;;;5148150;27;20020;-47
2023/12/25 05:33:20;;;;;;;13.65;2.63;;;10.90;99.90;;;;;;5148893;27;20042;-47
2023/12/25 05:35:46;;;;;;;14.77;2.33;;;10.90;99.90;;;;;;5148771;27;20027;-46
2023/12/25 05:38:12;;;;;;;13.13;2.33;;;10.90;99.90;;;;;;5148236;27;20034;-47
2023/12/25 05:40:38;;;;;;;15.45;2.92;;;10.90;99.90;;;;;;5148007;27;20098;-49
2023/12/25 05:43:03;;;;;;;16.23;2.33;;;10.90;99.90;;;;;;5148771;27;20027;-49
2023/12/25 05:45:29;;;;;;;15.70;2.60;;;10.80;99.90;;;;;;5148229;27;20079;-48
2023/12/25 05:47:55;;;;;;;17.05;2.90;;;10.80;99.90;;;;;;5148724;27;20026;-47
2023/12/25 05:50:21;;;;;;;13.10;2.63;;;10.70;99.90;;;;;;5148737;27;20100;-51
2023/12/25 05:52:46;;;;;;;16.80;2.58;;;10.70;99.90;;;;;;5148292;27;20027;-49
2023/12/25 05:55:12;;;;;;;16.25;2.65;;;10.70;99.90;;;;;;5148758;27;20019;-50
2023/12/25 05:57:38;;;;;;;14.23;2.45;;;10.60;99.90;;;;;;5148383;27;20027;-49
2023/12/25 06:00:04;;;;;;;20.77;3.90;;;10.60;99.90;;;;;;5147183;27;20042;-50
2023/12/25 06:02:30;;;;;;;16.88;2.55;;;10.60;99.90;;;;;;5148521;27;20067;-49
2023/12/25 06:04:56;;;;;;;15.43;2.78;;;10.50;99.90;;;;;;5148032;27;20304;-50
2023/12/25 06:07:21;;;;;;;12.38;2.40;;;10.50;99.90;;;;;;5148317;27;20075;-50
2023/12/25 06:09:47;;;;;;;16.52;2.83;;;10.50;99.90;;;;;;5148095;27;20098;-50
2023/12/25 06:12:13;;;;;;;14.85;2.75;;;10.50;99.90;;;;;;5148324;27;20136;-49
2023/12/25 06:14:38;;;;;;;14.60;4.22;;;10.60;99.90;;;;;;5148225;27;20027;-48
2023/12/25 06:17:04;;;;;;;22.08;3.38;;;10.50;99.90;;;;;;5147962;27;20197;-50
2023/12/25 06:19:30;;;;;;;12.32;2.65;;;10.60;99.90;;;;;;5148082;27;20031;-50
2023/12/25 06:21:55;;;;;;;14.63;2.97;;;10.60;99.90;;;;;;5147996;27;20045;-48
2023/12/25 06:24:21;;;;;;;14.85;2.40;;;10.60;99.90;;;;;;5147922;27;20041;-48
2023/12/25 06:26:47;;;;;;;11.98;2.45;;;10.60;99.90;;;;;;5147605;27;20056;-48
2023/12/25 06:29:13;;;;;;;16.88;2.65;;;10.60;99.90;;;;;;5147878;27;20165;-49
2023/12/25 06:31:38;;;;;;;11.77;1.92;;;10.60;99.90;;;;;;5147486;27;20030;-47
2023/12/25 06:34:04;;;;;;;18.92;2.50;;;10.60;99.90;;;;;;5146788;27;20189;-47
2023/12/25 06:36:30;;;;;;;14.10;2.67;;;10.60;99.90;;;;;;5146656;27;20051;-50
2023/12/25 06:38:55;;;;;;;14.02;1.88;;;10.60;99.90;;;;;;5147503;27;20027;-50
2023/12/25 06:41:21;;;;;;;16.83;2.22;;;10.60;99.90;;;;;;5147450;27;20031;-49
2023/12/25 06:43:47;;;;;;;11.60;1.90;;;10.60;99.90;;;;;;5147750;27;20023;-50
2023/12/25 06:46:13;;;;;;;10.32;2.00;;;10.60;99.90;;;;;;5147587;27;20173;-49
2023/12/25 06:48:38;;;;;;;10.88;1.85;;;10.60;99.90;;;;;;5146205;27;20266;-50
2023/12/25 06:51:04;;;;;;;10.43;1.92;;;10.60;99.90;;;;;;5147393;27;20026;-50
2023/12/25 06:53:30;;;;;;;16.45;2.75;;;10.50;99.90;;;;;;5146472;27;20023;-50
2023/12/25 06:55:55;;;;;;;13.95;1.92;;;10.50;99.90;;;;;;5147460;27;20037;-50
2023/12/25 06:58:21;;;;;;;14.55;2.60;;;10.50;99.90;;;;;;5146274;27;20199;-50
2023/12/25 07:00:46;;;;;;;16.08;2.50;;;10.50;99.90;;;;;;5128986;27;20309;-50
2023/12/25 07:03:12;;;;;;;17.60;2.50;;;10.50;99.90;;;;;;5146829;27;20030;-50
2023/12/25 07:05:38;;;;;;;15.82;2.28;;;10.50;99.90;;;;;;5147051;27;20307;-47
2023/12/25 07:08:04;;;;;;;19.08;2.75;;;10.40;99.90;;;;;;5146932;27;20205;-50
2023/12/25 07:10:30;;;;;;;16.98;2.70;;;10.40;99.90;;;;;;5147167;27;20088;-50
2023/12/25 07:12:55;;;;;;;12.57;2.35;;;10.50;99.90;;;;;;5147043;27;20272;-50
2023/12/25 07:15:21;;;;;;;16.25;2.50;;;10.50;99.90;;;;;;5146944;27;20069;-50
2023/12/25 07:17:46;;;;;;;15.77;2.75;;;10.50;99.90;;;;;;5146961;27;20162;-49
2023/12/25 07:20:12;;;;;;;12.63;2.38;;;10.50;99.90;;;;;;5146574;27;20034;-48
2023/12/25 07:22:38;;;;;;;18.85;2.55;;;10.50;99.90;;;;;;5146590;27;20041;-50
2023/12/25 07:25:06;;;;;;;16.90;2.33;;;10.50;99.90;;;;;;5146871;27;20309;-49
2023/12/25 07:27:32;;;;;;;13.27;2.40;;;10.60;99.90;;;;;;5146812;27;20140;-50
2023/12/25 07:29:58;;;;;;;15.25;2.22;;;10.60;99.90;;;;;;5147123;27;20087;-48
2023/12/25 07:32:24;;;;;;;12.15;2.35;;;10.60;99.90;;;;;;5146902;27;20031;-47
2023/12/25 07:34:49;;;;;;;14.60;2.45;;;10.60;99.90;;;;;;5146409;27;20027;-48
2023/12/25 07:37:15;;;;;;;12.57;2.42;;;10.50;99.90;;;;;;5146653;27;20176;-48
2023/12/25 07:39:42;;;;;;;18.13;2.08;;;10.50;99.90;;;;;;5146695;28;20030;-47
2023/12/25 07:42:08;;;;;;;10.82;2.10;;;10.50;99.90;;;;;;5146840;28;20027;-53
2023/12/25 07:44:38;;;;;;;12.95;2.15;;;10.50;99.90;;;;;;5146773;28;20297;-47
2023/12/25 07:47:04;;;;;;;12.05;2.03;;;10.50;99.90;;;;;;5146869;28;20177;-46
2023/12/25 07:49:29;;;;;;;21.35;3.03;;;10.50;99.90;;;;;;5145529;28;20082;-47
2023/12/25 07:51:56;;;;;;;17.83;2.33;;;10.50;99.90;;;;;;5146281;28;20019;-47
2023/12/25 07:54:21;;;;;;;20.65;2.83;;;10.40;99.90;;;;;;5146677;28;20317;-47
2023/12/25 07:56:47;;;;;;;22.23;2.50;;;10.40;99.90;;;;;;5146804;28;20023;-47
2023/12/25 07:59:12;;;;;;;22.20;2.75;;;10.50;99.90;;;;;;5146468;27;20015;-47
2023/12/25 08:01:38;;;;;;;21.90;2.97;;;10.50;99.90;;;;;;5150455;27;20096;-50
2023/12/25 08:04:04;;;;;;;17.70;2.30;;;10.50;99.90;;;;;;5132551;27;20114;-50
2023/12/25 08:06:29;;;;;;;16.58;2.47;;;10.50;99.90;;;;;;5150156;27;20316;-47
2023/12/25 08:08:55;;;;;;;15.68;2.38;;;10.60;99.90;;;;;;5149297;27;20213;-50
2023/12/25 08:11:21;;;;;;;16.45;2.28;;;10.60;99.90;;;;;;5149545;27;20030;-49
2023/12/25 08:13:46;;;;;;;14.38;2.35;;;10.60;99.90;;;;;;5149528;27;20215;-49
2023/12/25 08:16:12;;;;;;;14.93;2.05;;;10.70;99.90;;;;;;5150808;27;20250;-50
2023/12/25 08:18:38;;;;;;;21.17;3.33;;;10.60;99.90;;;;;;5150517;27;20029;-50
2023/12/25 08:21:04;;;;;;;15.63;2.42;;;10.60;99.90;;;;;;5150389;27;20072;-50
2023/12/25 08:23:30;;;;;;;14.35;3.28;;;10.60;99.90;;;;;;5149809;27;20035;-49
2023/12/25 08:25:56;;;;;;;11.98;2.95;;;10.60;99.90;;;;;;5149312;27;20041;-50
2023/12/25 08:28:21;;;;;;;16.27;2.97;;;10.70;99.90;;;;;;5149421;27;20023;-50
2023/12/25 08:30:47;;;;;;;16.15;2.70;;;10.60;99.90;;;;;;5149912;27;20038;-50
2023/12/25 08:33:13;;;;;;;13.65;3.35;;;10.60;99.90;;;;;;5149987;27;20288;-49
2023/12/25 08:35:38;;;;;;;21.77;5.30;;;10.70;99.90;;;;;;5150062;27;20273;-48
2023/12/25 08:38:04;;;;;;;15.20;4.10;;;10.60;99.90;;;;;;5150113;27;20351;-48
2023/12/25 08:40:30;;;;;;;19.02;3.70;;;10.60;99.90;;;;;;5149529;27;20136;-49
2023/12/25 08:42:55;;;;;;;20.55;3.78;;;10.70;99.90;;;;;;5149987;27;20027;-47
2023/12/25 08:45:21;;;;;;;21.88;4.28;;;10.70;99.90;;;;;;5149857;27;20031;-47
2023/12/25 08:47:51;;;;;;;12.20;3.42;;;10.70;99.90;;;;;;5148825;27;20076;-47
2023/12/25 08:50:17;;;;;;;17.27;3.70;;;10.70;99.90;;;;;;5148885;27;20038;-48
2023/12/25 08:52:43;;;;;;;21.17;4.07;;;10.70;99.90;;;;;;5148871;27;20035;-50
2023/12/25 08:55:09;;;;;;;17.63;2.90;;;10.70;99.90;;;;;;5149548;27;20173;-50
2023/12/25 08:57:35;;;;;;;20.23;3.88;;;10.70;99.90;;;;;;5149655;27;20027;-50
2023/12/25 09:00:03;;;;;;;18.38;2.65;;;10.70;99.90;;;;;;5149674;27;20035;-50
2023/12/25 09:02:28;;;;;;;18.85;2.90;;;10.70;99.90;;;;;;5148552;27;20022;-50
2023/12/25 09:04:54;;;;;;;15.85;3.10;;;10.70;99.90;;;;;;5149288;27;20037;-50
2023/12/25 09:07:20;;;;;;;11.48;2.50;;;10.70;99.90;;;;;;5149307;27;20027;-50
2023/12/25 09:09:46;;;;;;;18.95;2.65;;;10.70;99.90;;;;;;5148357;27;20043;-50
2023/12/25 09:12:11;;;;;;;12.38;2.45;;;10.70;99.90;;;;;;5147804;27;20039;-50
2023/12/25 09:14:37;;;;;;;17.92;2.22;;;10.70;99.90;;;;;;5149398;27;20030;-50
2023/12/25 09:17:03;;;;;;;17.95;2.85;;;10.70;99.90;;;;;;5149183;27;20043;-50
2023/12/25 09:19:28;;;;;;;9.02;2.42;;;10.70;99.90;;;;;;5149143;27;20019;-50
2023/12/25 09:21:54;;;;;;;10.70;1.95;;;10.70;99.90;;;;;;5149303;27;20031;-48
2023/12/25 09:24:20;;;;;;;13.77;2.10;;;10.70;99.90;;;;;;5148825;27;20285;-50
2023/12/25 09:26:47;;;;;;;11.27;2.10;;;10.70;99.90;;;;;;5149134;27;20221;-49
2023/12/25 09:29:12;;;;;;;18.58;2.63;;;10.70;99.90;;;;;;5149117;27;20062;-50
2023/12/25 09:31:38;;;;;;;20.40;2.88;;;10.70;99.90;;;;;;5148958;27;20023;-50
2023/12/25 09:34:03;;;;;;;13.77;2.38;;;10.70;99.90;;;;;;5148070;27;20019;-51
2023/12/25 09:36:29;;;;;;;11.27;2.72;;;10.70;99.90;;;;;;5148909;27;20073;-49
2023/12/25 09:38:55;;;;;;;13.70;2.22;;;10.80;99.90;;;;;;5148565;27;20064;-51
2023/12/25 09:41:21;;;;;;;14.98;2.20;;;10.70;99.90;;;;;;5147654;27;20019;-50
2023/12/25 09:43:47;;;;;;;12.15;2.60;;;10.70;99.90;;;;;;5130716;27;20035;-48
2023/12/25 09:46:12;;;;;;;11.00;1.90;;;10.70;99.90;;;;;;5147580;27;20042;-48
2023/12/25 09:48:41;;;;;;;15.00;2.13;;;10.70;99.90;;;;;;5130710;27;20019;-48
2023/12/25 09:51:07;;;;;;;10.95;2.42;;;10.70;99.90;;;;;;5147793;27;20022;-50
2023/12/25 09:53:33;;;;;;;14.75;2.28;;;10.70;99.90;;;;;;5147565;27;20027;-49
2023/12/25 09:55:59;;;;;;;12.60;2.55;;;10.70;99.90;;;;;;5113321;27;20027;-47
2023/12/25 09:58:26;;;;;;;15.30;2.78;;;10.70;99.90;;;;;;5148506;27;20319;-48
2023/12/25 10:00:52;;;;;;;12.50;2.05;;;10.70;99.90;;;;;;5148377;27;20027;-50
2023/12/25 10:03:18;;;;;;;9.52;2.20;;;10.80;99.90;;;;;;5148431;27;20023;-48
2023/12/25 10:05:43;;;;;;;14.38;2.17;;;10.80;99.90;;;;;;5129924;27;20035;-51
2023/12/25 10:08:09;;;;;;;11.00;2.83;;;10.80;99.90;;;;;;5148044;27;20174;-48
2023/12/25 10:10:36;;;;;;;16.58;2.30;;;10.80;99.90;;;;;;5148273;27;20291;-50
2023/12/25 10:13:01;;;;;;;13.73;2.25;;;10.80;99.90;;;;;;5147053;27;20023;-50
2023/12/25 10:15:27;;;;;;;13.35;2.00;;;10.80;99.90;;;;;;5129875;27;20054;-51
2023/12/25 10:18:06;;;;;;;12.10;2.13;;;10.80;99.90;;;;;;5148068;27;20203;-50
2023/12/25 10:20:31;;;;;;;13.20;2.03;;;10.80;99.90;;;;;;5148062;27;20035;-50
2023/12/25 10:22:57;;;;;;;14.52;2.15;;;10.80;99.90;;;;;;5146355;27;20088;-49
2023/12/25 10:25:28;;;;;;;10.73;1.63;;;10.80;99.90;;;;;;5146865;27;20058;-50
2023/12/25 10:27:54;;;;;;;10.68;2.45;;;10.80;99.90;;;;;;5146762;27;20102;-48
2023/12/25 10:30:20;;;;;;;22.92;10.32;;;10.80;99.90;;;;;;5146881;27;20027;-51
2023/12/25 10:32:49;;;;;;;19.23;5.93;;;10.80;99.90;;;;;;5147409;27;20080;-51
2023/12/25 10:35:20;;;;;;;10.07;2.08;;;10.80;99.90;;;;;;5147455;27;20080;-50
2023/12/25 10:37:45;;;;;;;52.90;22.08;;;10.80;99.90;;;;;;5147719;27;20090;-50
2023/12/25 10:40:27;;;;;;;18.20;4.70;;;10.80;99.90;;;;;;5147712;27;20031;-51
2023/12/25 10:42:54;;;;;;;18.63;5.82;;;10.80;99.90;;;;;;5147495;27;20214;-51
2023/12/25 10:45:26;;;;;;;14.95;3.38;;;10.80;99.90;;;;;;5146222;27;20070;-50
2023/12/25 10:47:53;;;;;;;19.35;2.83;;;10.80;99.90;;;;;;5147372;27;20015;-49
2023/12/25 10:50:26;;;;;;;16.15;4.28;;;10.80;99.90;;;;;;5147504;27;20288;-52
2023/12/25 10:52:52;;;;;;;22.38;2.97;;;10.80;99.90;;;;;;5147334;27;20034;-49
2023/12/25 10:55:26;;;;;;;13.00;3.17;;;10.70;99.90;;;;;;5146281;27;20037;-50
2023/12/25 10:57:52;;;;;;;21.00;2.95;;;10.70;99.90;;;;;;5130005;27;20193;-50
2023/12/25 11:00:18;;;;;;;20.00;3.85;;;10.60;99.90;;;;;;5129081;27;20162;-51
2023/12/25 11:02:44;;;;;;;10.75;2.35;;;10.60;99.90;;;;;;5147369;27;20050;-51
2023/12/25 11:05:09;;;;;;;15.35;2.38;;;10.60;99.90;;;;;;5128688;27;20103;-49
2023/12/25 11:07:35;;;;;;;17.20;2.70;;;10.50;99.90;;;;;;5146003;27;20079;-51
2023/12/25 11:10:01;;;;;;;32.55;7.45;;;10.50;99.90;;;;;;5145923;27;20131;-50
2023/12/25 11:12:26;;;;;;;78.60;31.33;;;10.50;99.90;;;;;;5145885;27;20084;-50
2023/12/25 11:14:53;;;;;;;57.13;23.13;;;10.50;99.90;;;;;;5146037;27;20047;-51
2023/12/25 11:17:19;;;;;;;64.57;22.75;;;10.50;99.90;;;;;;5128727;27;20037;-51
2023/12/25 11:19:46;;;;;;;13.80;3.45;;;10.50;99.90;;;;;;5146888;27;20038;-51
2023/12/25 11:22:30;;;;;;;22.88;6.22;;;10.50;99.90;;;;;;5128891;27;20019;-50
2023/12/25 11:24:56;;;;;;;22.33;5.72;;;10.60;99.90;;;;;;5128872;27;20050;-47
2023/12/25 11:27:22;;;;;;;26.85;4.38;;;10.50;99.90;;;;;;5145660;27;20030;-51
2023/12/25 11:29:49;;;;;;;15.80;3.22;;;10.50;99.90;;;;;;5145749;27;20023;-51
2023/12/25 11:32:16;;;;;;;21.95;3.70;;;10.60;99.90;;;;;;5146842;27;20034;-51
2023/12/25 11:34:43;;;;;;;24.08;4.85;;;10.60;99.90;;;;;;5128161;27;20019;-51
2023/12/25 11:37:23;;;;;;;16.15;3.80;;;10.60;99.90;;;;;;5145739;27;20078;-51
2023/12/25 11:40:05;;;;;;;22.58;3.10;;;10.60;99.90;;;;;;5146666;27;20031;-50
2023/12/25 11:42:31;;;;;;;20.42;3.63;;;10.60;99.90;;;;;;5146687;27;20031;-50
2023/12/25 11:45:00;;;;;;;23.25;4.70;;;10.60;99.90;;;;;;5146252;28;20042;-50
2023/12/25 11:47:42;;;;;;;21.17;5.88;;;10.70;99.90;;;;;;5145070;28;20058;-50
2023/12/25 11:50:09;;;;;;;104.88;43.17;;;10.70;99.90;;;;;;5144822;28;20031;-49
2023/12/25 11:52:44;;;;;;;24.55;4.82;;;10.70;99.90;;;;;;5144932;28;20027;-50
2023/12/25 11:55:13;;;;;;;148.13;62.95;;;10.70;99.90;;;;;;5146176;28;20054;-50
2023/12/25 11:57:42;;;;;;;18.75;5.13;;;10.70;99.90;;;;;;5146316;28;20094;-48
2023/12/25 12:00:17;;;;;;;32.97;7.70;;;10.70;99.90;;;;;;5146470;28;20027;-51
2023/12/25 12:02:44;;;;;;;12.18;3.25;;;10.70;99.90;;;;;;5146521;28;20031;-49
2023/12/25 12:05:10;;;;;;;29.75;5.25;;;10.70;99.90;;;;;;5128414;28;20043;-50
2023/12/25 12:07:36;;;;;;;23.73;4.28;;;10.80;99.90;;;;;;5146452;28;20027;-47
2023/12/25 12:10:02;;;;;;;25.60;6.95;;;10.70;99.90;;;;;;5125878;28;20035;-48
2023/12/25 12:12:28;;;;;;;29.92;6.28;;;10.80;99.90;;;;;;5125940;28;20040;-48
2023/12/25 12:14:53;;;;;;;21.02;5.00;;;10.80;99.90;;;;;;5125657;28;20027;-48
2023/12/25 12:17:19;;;;;;;25.73;4.00;;;10.80;99.90;;;;;;5124932;28;20035;-48
2023/12/25 12:19:45;;;;;;;27.58;4.63;;;10.80;99.90;;;;;;5125299;28;20227;-48
2023/12/25 12:22:10;;;;;;;23.02;4.13;;;10.80;99.90;;;;;;5124635;28;20193;-48
2023/12/25 12:24:36;;;;;;;22.05;4.05;;;10.90;99.90;;;;;;5107950;28;20050;-48
2023/12/25 12:27:03;;;;;;;21.67;5.43;;;10.90;99.90;;;;;;5124340;28;20023;-48
2023/12/25 12:29:29;;;;;;;23.67;4.72;;;10.90;99.90;;;;;;5125466;28;20031;-48
2023/12/25 12:31:55;;;;;;;34.80;5.38;;;10.90;99.90;;;;;;5124470;28;20094;-48
2023/12/25 12:34:21;;;;;;;22.58;3.58;;;10.90;99.90;;;;;;5125744;28;20035;-48
2023/12/25 12:36:59;;;;;;;22.92;3.83;;;10.90;99.90;;;;;;5125372;28;20093;-48